INFORMACIÓN METAR y TAF
METAR FOR GOOY
ADDS - METARS form results

(0754 UTC 15 April 2021)
Data provider http://aviationweather.gov/metar/data/
 
Forecast for: GOOY (DAKAR/YOFF , SN)
Text: TAF GOOY 150530Z 1506/1612 36014KT CAVOK
Forecast period: 0600 UTC 15 April 2021 to 1200 UTC 16 April 2021
Forecast type: FROM: standard forecast or significant change
Winds: from the N (360 degrees) at 16 MPH (14 knots; 7.2 m/s)
Visibility: 6 or more miles (10+ km)
Ceiling: unknown
Clouds: missing
Weather: NSW  (no significant weather)

 MAPA DE AEROPUERTO

 INFORMACIÓN DE PISTA
Pista 03 Longitud 4921 ft Ancho 98 ft
Elevación 63 ft Umbral desplazado 0 ft Rumbo de pista 23
Pista 21 Longitud 4921 ft Ancho 98 ft
Elevación 56 ft Umbral desplazado 0 ft Rumbo de pista 203
Pista 18 Longitud 11450 ft Ancho 148 ft
Elevación 64 ft Umbral desplazado 525 ft Rumbo de pista 173
Pista 36 Longitud 11450 ft Ancho 148 ft
Elevación 75 ft Umbral desplazado 0 ft Rumbo de pista 353

 FRECUANCIAS DEL AEROPUERTO
Tipo APP Nombre DAKAR CON Frecuencia 120.5 MHZ
Tipo INFO Nombre DAKAR INFO Frecuencia 129.5 MHZ
Tipo INFO Nombre DAKAR INFO Frecuencia 345.2 MHZ
Tipo TWR Nombre DAKAR TWR Frecuencia 118.1 MHZ

 RADIO AYUDAS DEL AEROPUERTO
Tipo NDB Nombre Dakar Frecuencia 323 KHZ
Tipo VOR-DME Nombre Dakar Frecuencia 113100 KHZ



Powered by Virtual Airlines Manager [v2.6.2]